Time;durP1;ratioP1;P1;durP2;ratioP2;P2;SDS_P1;SDS_P2;PMS_P1;PMS_P2;Temp;Humidity;BMP_temperature;BMP_pressure;BME280_temperature;BME280_humidity;BME280_pressure;Samples;Min_cycle;Max_cycle;Signal;HPM_P1;HPM_P2
2023/01/09 00:02:03;;;;;;;;;;;;;;;18.69;47.70;99070.53;5152645;27;19923;-58
2023/01/09 00:04:29;;;;;;;;;;;;;;;18.70;47.84;99074.94;5138657;27;19984;-59
2023/01/09 00:06:54;;;;;;;;;;;;;;;18.70;47.93;99071.38;5142711;27;19923;-59
2023/01/09 00:09:21;;;;;;;;;;;;;;;18.69;47.79;99078.78;5113447;28;20319;-58
2023/01/09 00:11:47;;;;;;;;;;;;;;;18.69;47.63;99078.78;5124532;27;19976;-59
2023/01/09 00:14:13;;;;;;;;;;;;;;;18.70;47.87;99074.13;5164097;27;19922;-59
2023/01/09 00:16:38;;;;;;;;;;;;;;;18.69;47.93;99076.03;5159384;27;19954;-59
2023/01/09 00:19:04;;;;;;;;;;;;;;;18.70;47.66;99068.59;5152131;27;19930;-59
2023/01/09 00:21:29;;;;;;;;;;;;;;;18.70;47.61;99074.13;5152482;27;19930;-59
2023/01/09 00:23:55;;;;;;;;;;;;;;;18.70;47.81;99079.63;5152199;27;20283;-59
2023/01/09 00:26:21;;;;;;;;;;;;;;;18.70;47.76;99079.63;5147201;27;19938;-58
2023/01/09 00:28:47;;;;;;;;;;;;;;;18.70;47.90;99071.38;5120079;27;20401;-59
2023/01/09 00:31:13;;;;;;;;;;;;;;;18.69;47.63;99069.69;5151717;27;19927;-58
2023/01/09 00:33:40;;;;;;;;;;;;;;;18.69;47.57;99076.03;5133394;27;19975;-59
2023/01/09 00:36:06;;;;;;;;;;;;;;;18.70;47.73;99082.41;5149164;27;19952;-59
2023/01/09 00:38:31;;;;;;;;;;;;;;;18.69;47.65;99087.06;5112994;28;19924;-59
2023/01/09 00:40:57;;;;;;;;;;;;;;;18.69;47.62;99087.06;5112885;28;19924;-59
2023/01/09 00:43:24;;;;;;;;;;;;;;;18.68;47.76;99093.69;5112645;28;20018;-59
2023/01/09 00:45:49;;;;;;;;;;;;;;;18.70;47.63;99096.19;5131094;27;19923;-59
2023/01/09 00:48:15;;;;;;;;;;;;;;;18.69;47.82;99106.38;5112779;28;20299;-59
2023/01/09 00:50:41;;;;;;;;;;;;;;;18.69;47.81;99103.63;5131476;28;19927;-59
2023/01/09 00:53:08;;;;;;;;;;;;;;;18.70;47.59;99113.53;5131316;28;19930;-59
2023/01/09 00:55:34;;;;;;;;;;;;;;;18.69;47.71;99109.13;5112303;28;20225;-57
2023/01/09 00:57:59;;;;;;;;;;;;;;;18.70;47.76;99113.53;5132071;27;19927;-59
2023/01/09 01:00:25;;;;;;;;;;;;;;;18.69;47.47;99106.38;5151319;27;19975;-59
2023/01/09 01:02:50;;;;;;;;;;;;;;;18.70;47.76;99104.44;5151197;27;19923;-59
2023/01/09 01:08:02;;;;;;;;;;;;;;;18.69;47.74;99108.28;5116756;28;19924;-59
2023/01/09 01:10:27;;;;;;;;;;;;;;;18.70;47.48;99115.47;5130880;28;19924;-59
2023/01/09 01:12:53;;;;;;;;;;;;;;;18.69;47.50;99120.16;5133943;27;20174;-59
2023/01/09 01:15:18;;;;;;;;;;;;;;;18.70;47.87;99121.00;5172371;27;19926;-59
2023/01/09 01:17:44;;;;;;;;;;;;;;;18.69;47.44;99124.84;5144476;27;19953;-59
2023/01/09 01:20:12;;;;;;;;;;;;;;;18.68;47.48;99132.28;5149747;27;19923;-59
2023/01/09 01:22:37;;;;;;;;;;;;;;;18.69;47.79;99135.88;5150192;27;19923;-58
2023/01/09 01:25:03;;;;;;;;;;;;;;;18.69;47.77;99130.34;5150701;27;19980;-59
2023/01/09 01:27:29;;;;;;;;;;;;;;;18.69;47.75;99135.88;5136425;27;19959;-59
2023/01/09 01:29:55;;;;;;;;;;;;;;;18.69;47.75;99141.38;5147779;27;19932;-59
2023/01/09 01:32:20;;;;;;;;;;;;;;;18.69;47.74;99136.69;5151379;27;20030;-59
2023/01/09 01:34:46;;;;;;;;;;;;;;;18.69;47.50;99136.69;5150916;27;19941;-59
2023/01/09 01:37:13;;;;;;;;;;;;;;;18.69;47.76;99124.84;5138754;27;20018;-59
2023/01/09 01:39:38;;;;;;;;;;;;;;;18.69;47.54;99122.06;5130312;28;19924;-59
2023/01/09 01:42:04;;;;;;;;;;;;;;;18.70;47.74;99134.78;5130670;28;19924;-59
2023/01/09 01:44:50;;;;;;;;;;;;;;;18.69;47.49;99135.88;5129927;27;19951;-59
2023/01/09 01:47:15;;;;;;;;;;;;;;;18.70;47.44;99140.31;5127476;27;19923;-58
2023/01/09 01:49:41;;;;;;;;;;;;;;;18.68;47.45;99137.81;5151105;27;20427;-59
2023/01/09 01:52:06;;;;;;;;;;;;;;;18.69;47.45;99149.66;5151057;27;19923;-59
2023/01/09 01:54:32;;;;;;;;;;;;;;;18.70;47.46;99145.81;5150319;27;20256;-59
2023/01/09 01:57:00;;;;;;;;;;;;;;;18.69;47.63;99144.13;5150732;27;19923;-59
2023/01/09 01:59:26;;;;;;;;;;;;;;;18.69;47.44;99149.66;5150131;27;20294;-59
2023/01/09 02:01:53;;;;;;;;;;;;;;;18.69;47.44;99155.16;5150818;27;20451;-59
2023/01/09 02:04:18;;;;;;;;;;;;;;;18.68;47.76;99154.34;5150672;27;19967;-59
2023/01/09 02:06:45;;;;;;;;;;;;;;;18.68;47.57;99164.56;5150252;27;19946;-59
2023/01/09 02:09:14;;;;;;;;;;;;;;;18.69;47.42;99168.94;5132116;27;19949;-59
2023/01/09 02:11:47;;;;;;;;;;;;;;;18.68;47.59;99170.09;5150858;27;20395;-59
2023/01/09 02:14:13;;;;;;;;;;;;;;;18.68;47.42;99175.59;5163775;27;19950;-59
2023/01/09 02:16:46;;;;;;;;;;;;;;;18.69;47.41;99168.94;5156573;27;19923;-59
2023/01/09 02:19:18;;;;;;;;;;;;;;;18.70;47.38;99178.91;5133292;27;20354;-59
2023/01/09 02:22:04;;;;;;;;;;;;;;;18.68;47.39;99165.38;5149730;27;19976;-59
2023/01/09 02:24:49;;;;;;;;;;;;;;;18.68;47.76;99161.81;5134471;27;20359;-59
2023/01/09 02:27:24;;;;;;;;;;;;;;;18.68;47.42;99159.88;5134816;27;19923;-59
2023/01/09 02:30:09;;;;;;;;;;;;;;;18.68;47.71;99170.09;5150397;27;19923;-59
2023/01/09 02:32:39;;;;;;;;;;;;;;;18.68;47.75;99165.38;5135075;27;20327;-58
2023/01/09 02:35:08;;;;;;;;;;;;;;;18.68;47.40;99173.66;5150394;27;19927;-59
2023/01/09 02:37:51;;;;;;;;;;;;;;;18.68;47.64;99181.13;5151629;27;19923;-59
2023/01/09 02:40:25;;;;;;;;;;;;;;;18.68;47.52;99181.13;5154031;27;19994;-59
2023/01/09 02:42:51;;;;;;;;;;;;;;;18.69;47.44;99182.75;5154123;27;19979;-59
2023/01/09 02:45:17;;;;;;;;;;;;;;;18.67;47.49;99183.06;5147919;27;19931;-59
2023/01/09 02:47:43;;;;;;;;;;;;;;;18.68;47.49;99181.94;5153898;27;19931;-59
2023/01/09 02:50:17;;;;;;;;;;;;;;;18.67;47.60;99174.78;5153802;27;20248;-59
2023/01/09 02:52:48;;;;;;;;;;;;;;;18.68;47.67;99176.41;5153548;27;20290;-59
2023/01/09 02:55:23;;;;;;;;;;;;;;;18.68;47.66;99178.38;5153704;27;19992;-59
2023/01/09 02:57:53;;;;;;;;;;;;;;;18.68;47.40;99184.69;5153667;27;19962;-59
2023/01/09 03:00:29;;;;;;;;;;;;;;;18.68;47.35;99181.13;5132632;28;19951;-59
2023/01/09 03:02:57;;;;;;;;;;;;;;;18.67;47.39;99174.78;5133001;28;20065;-58
2023/01/09 03:05:30;;;;;;;;;;;;;;;18.68;47.59;99183.88;5132923;28;19975;-59
2023/01/09 03:07:58;;;;;;;;;;;;;;;18.67;47.60;99180.31;5151311;27;19930;-59
2023/01/09 03:10:26;;;;;;;;;;;;;;;18.67;47.67;99183.06;5153211;27;20417;-59
2023/01/09 03:12:53;;;;;;;;;;;;;;;18.69;47.77;99179.97;5136140;27;19969;-58
2023/01/09 03:15:20;;;;;;;;;;;;;;;18.67;47.57;99183.06;5155415;27;19923;-59
2023/01/09 03:17:46;;;;;;;;;;;;;;;18.68;47.41;99194.91;5140262;27;19931;-59
2023/01/09 03:20:12;;;;;;;;;;;;;;;18.68;47.73;99186.63;5132704;28;19980;-59
2023/01/09 03:22:38;;;;;;;;;;;;;;;18.67;47.60;99183.06;5149761;27;19923;-59
2023/01/09 03:25:04;;;;;;;;;;;;;;;18.68;47.35;99194.91;5152363;27;19923;-59
2023/01/09 03:27:30;;;;;;;;;;;;;;;18.68;47.58;99189.41;5153191;27;19930;-59
2023/01/09 03:29:55;;;;;;;;;;;;;;;18.68;47.73;99195.72;5152755;27;19927;-59
2023/01/09 03:32:21;;;;;;;;;;;;;;;18.67;47.33;99196.84;5153161;27;19950;-59
2023/01/09 03:34:46;;;;;;;;;;;;;;;18.67;47.55;99199.63;5152790;27;20435;-59
2023/01/09 03:37:12;;;;;;;;;;;;;;;18.68;47.64;99203.19;5152883;27;19934;-59
2023/01/09 03:39:37;;;;;;;;;;;;;;;18.68;47.45;99211.44;5153082;27;20014;-59
2023/01/09 03:42:03;;;;;;;;;;;;;;;18.67;47.52;99205.13;5152689;27;20375;-58
2023/01/09 03:44:29;;;;;;;;;;;;;;;18.67;47.61;99205.13;5152563;27;19933;-59
2023/01/09 03:46:54;;;;;;;;;;;;;;;18.68;47.42;99203.19;5152547;27;19935;-58
2023/01/09 03:49:20;;;;;;;;;;;;;;;18.68;47.32;99212.25;5153000;27;19923;-59
2023/01/09 03:51:46;;;;;;;;;;;;;;;18.68;47.52;99208.69;5153056;27;19934;-59
2023/01/09 03:54:11;;;;;;;;;;;;;;;18.67;47.30;99205.13;5134244;27;19926;-59
2023/01/09 03:56:37;;;;;;;;;;;;;;;18.67;47.71;99210.63;5134080;27;20332;-59
2023/01/09 03:59:02;;;;;;;;;;;;;;;18.66;47.35;99216.47;5152230;27;19934;-58
2023/01/09 04:01:28;;;;;;;;;;;;;;;18.67;47.32;99227.19;5152272;27;20375;-59
2023/01/09 04:03:54;;;;;;;;;;;;;;;18.67;47.54;99212.59;5152306;27;19927;-59
2023/01/09 04:06:19;;;;;;;;;;;;;;;18.67;47.50;99216.16;5152461;27;19927;-59
2023/01/09 04:08:45;;;;;;;;;;;;;;;18.67;47.45;99220.84;5152811;27;19923;-59
2023/01/09 04:11:10;;;;;;;;;;;;;;;18.67;47.40;99227.19;5152772;27;19927;-59
2023/01/09 04:13:36;;;;;;;;;;;;;;;18.67;47.43;99218.91;5152836;27;19926;-58
2023/01/09 04:16:01;;;;;;;;;;;;;;;18.68;47.48;99228.00;5152218;27;19927;-59
2023/01/09 04:18:27;;;;;;;;;;;;;;;18.67;47.33;99229.94;5151728;27;19931;-59
2023/01/09 04:20:53;;;;;;;;;;;;;;;18.67;47.41;99229.13;5152240;27;20387;-59
2023/01/09 04:23:20;;;;;;;;;;;;;;;18.68;47.32;99230.75;5151614;27;19930;-59
2023/01/09 04:25:46;;;;;;;;;;;;;;;18.67;47.46;99235.47;5152106;27;19929;-59
2023/01/09 04:28:12;;;;;;;;;;;;;;;18.67;47.63;99238.22;5134355;27;20352;-59
2023/01/09 04:30:37;;;;;;;;;;;;;;;18.66;47.38;99233.84;5151980;27;20088;-59
2023/01/09 04:33:03;;;;;;;;;;;;;;;18.66;47.47;99233.84;5152228;27;19927;-59
2023/01/09 04:35:28;;;;;;;;;;;;;;;18.67;47.39;99235.47;5151850;27;19927;-59
2023/01/09 04:37:54;;;;;;;;;;;;;;;18.66;47.39;99241.31;5134111;27;19929;-59
2023/01/09 04:40:19;;;;;;;;;;;;;;;18.66;47.49;99242.09;5131571;28;19930;-59
2023/01/09 04:42:45;;;;;;;;;;;;;;;18.67;47.58;99243.72;5131548;28;19975;-59
2023/01/09 04:45:10;;;;;;;;;;;;;;;18.66;47.65;99244.88;5146130;27;19927;-58
2023/01/09 04:47:36;;;;;;;;;;;;;;;18.66;47.30;99253.13;5151837;27;20061;-59
2023/01/09 04:50:02;;;;;;;;;;;;;;;18.65;47.59;99248.75;5151544;27;19923;-59
2023/01/09 04:52:27;;;;;;;;;;;;;;;18.67;47.46;99252.00;5151941;27;20399;-59
2023/01/09 04:54:53;;;;;;;;;;;;;;;18.67;47.52;99242.91;5150982;27;19971;-59
2023/01/09 04:57:18;;;;;;;;;;;;;;;18.67;47.52;99245.69;5151782;27;20541;-59
2023/01/09 04:59:44;;;;;;;;;;;;;;;18.67;47.60;99256.72;5132082;27;19976;-59
2023/01/09 05:02:10;;;;;;;;;;;;;;;18.66;47.67;99263.34;5151689;27;19948;-59
2023/01/09 05:04:35;;;;;;;;;;;;;;;18.66;47.61;99266.94;5151628;27;19923;-59
2023/01/09 05:07:01;;;;;;;;;;;;;;;18.66;47.30;99266.13;5151604;27;19923;-59
2023/01/09 05:09:27;;;;;;;;;;;;;;;18.66;47.52;99268.88;5151869;27;20309;-59
2023/01/09 05:11:52;;;;;;;;;;;;;;;18.66;47.66;99266.13;5151630;27;20003;-58
2023/01/09 05:14:18;;;;;;;;;;;;;;;18.66;47.61;99268.88;5151682;27;19927;-59
2023/01/09 05:16:43;;;;;;;;;;;;;;;18.66;47.36;99268.88;5151484;27;19930;-59
2023/01/09 05:19:09;;;;;;;;;;;;;;;18.67;47.45;99276.00;5151622;27;20324;-59
2023/01/09 05:21:35;;;;;;;;;;;;;;;18.66;47.43;99269.69;5151281;27;19923;-59
2023/01/09 05:24:00;;;;;;;;;;;;;;;18.67;47.32;99268.53;5150906;27;20404;-59
2023/01/09 05:26:26;;;;;;;;;;;;;;;18.66;47.56;99272.44;5150182;27;19930;-59
2023/01/09 05:28:52;;;;;;;;;;;;;;;18.65;47.45;99273.56;5150947;27;19927;-59
2023/01/09 05:31:18;;;;;;;;;;;;;;;18.67;47.39;99285.09;5151100;27;19954;-59
2023/01/09 05:33:43;;;;;;;;;;;;;;;18.66;47.56;99274.38;5151131;27;20283;-59
2023/01/09 05:36:09;;;;;;;;;;;;;;;18.66;47.53;99277.94;5151318;27;19923;-59
2023/01/09 05:38:34;;;;;;;;;;;;;;;18.66;47.51;99282.66;5151358;27;20138;-59
2023/01/09 05:41:00;;;;;;;;;;;;;;;18.65;47.32;99290.13;5151287;27;19930;-59
2023/01/09 05:43:25;;;;;;;;;;;;;;;18.65;47.27;99287.38;5151444;27;20271;-59
2023/01/09 05:45:51;;;;;;;;;;;;;;;18.66;47.57;99296.44;5150764;27;19927;-58
2023/01/09 05:48:17;;;;;;;;;;;;;;;18.65;47.41;99287.38;5150917;27;20542;-59
2023/01/09 05:50:42;;;;;;;;;;;;;;;18.65;47.28;99287.38;5151079;27;19923;-59
2023/01/09 05:53:08;;;;;;;;;;;;;;;18.66;47.62;99285.41;5150972;27;19946;-59
2023/01/09 05:55:33;;;;;;;;;;;;;;;18.66;47.36;99290.94;5150394;27;19930;-59
2023/01/09 05:57:59;;;;;;;;;;;;;;;18.66;47.54;99282.66;5150668;27;20367;-59
2023/01/09 06:00:25;;;;;;;;;;;;;;;18.65;47.51;99281.84;5150276;27;19972;-59
2023/01/09 06:02:50;;;;;;;;;;;;;;;18.66;47.60;99288.19;5148068;27;19924;-59
2023/01/09 06:05:16;;;;;;;;;;;;;;;18.65;47.34;99292.88;5132880;27;20395;-59
2023/01/09 06:07:41;;;;;;;;;;;;;;;18.66;47.51;99290.94;5140841;27;20287;-59
2023/01/09 06:10:08;;;;;;;;;;;;;;;18.66;47.58;99286.22;5151071;27;19931;-59
2023/01/09 06:12:33;;;;;;;;;;;;;;;18.66;47.29;99290.94;5149961;27;20290;-59
2023/01/09 06:14:59;;;;;;;;;;;;;;;18.67;47.55;99296.13;5154428;27;20372;-59
2023/01/09 06:17:24;;;;;;;;;;;;;;;18.66;47.58;99288.19;5142940;27;19934;-59
2023/01/09 06:19:50;;;;;;;;;;;;;;;18.65;47.28;99287.38;5133470;27;19935;-59
2023/01/09 06:22:16;;;;;;;;;;;;;;;18.65;47.31;99292.88;5133106;28;19923;-58
2023/01/09 06:24:41;;;;;;;;;;;;;;;18.65;47.48;99290.13;5140602;27;20340;-59
2023/01/09 06:27:07;;;;;;;;;;;;;;;18.66;47.59;99285.41;5144983;27;19937;-59
2023/01/09 06:29:32;;;;;;;;;;;;;;;18.65;47.45;99278.25;5148753;27;19968;-59
2023/01/09 06:31:58;;;;;;;;;;;;;;;18.65;47.40;99289.28;5146929;27;20038;-59
2023/01/09 06:34:23;;;;;;;;;;;;;;;18.66;47.49;99288.19;5152454;27;20363;-59
2023/01/09 06:36:49;;;;;;;;;;;;;;;18.65;47.40;99284.59;5151230;27;19923;-58
2023/01/09 06:39:14;;;;;;;;;;;;;;;18.64;47.34;99285.72;5149021;27;19923;-59
2023/01/09 06:41:40;;;;;;;;;;;;;;;18.66;47.32;99291.75;5132213;28;19923;-59
2023/01/09 06:44:06;;;;;;;;;;;;;;;18.65;47.61;99289.28;5152264;27;19927;-59
2023/01/09 06:46:31;;;;;;;;;;;;;;;18.65;47.54;99290.13;5153045;27;19927;-58
2023/01/09 06:48:57;;;;;;;;;;;;;;;18.66;47.68;99296.44;5147626;27;19931;-58
2023/01/09 06:51:22;;;;;;;;;;;;;;;18.66;47.62;99290.94;5143840;27;19927;-59
2023/01/09 06:53:49;;;;;;;;;;;;;;;18.65;47.55;99284.59;5140931;27;20427;-59
2023/01/09 06:56:14;;;;;;;;;;;;;;;18.65;47.36;99281.84;5139433;27;20347;-59
2023/01/09 06:58:40;;;;;;;;;;;;;;;18.66;47.26;99282.66;5132792;27;19930;-59
2023/01/09 07:01:05;;;;;;;;;;;;;;;18.65;47.53;99287.38;5133098;27;19923;-59
2023/01/09 07:03:31;;;;;;;;;;;;;;;18.66;47.33;99283.47;5129829;27;19979;-58
2023/01/09 07:05:59;;;;;;;;;;;;;;;18.65;47.52;99284.59;5131713;27;19963;-58
2023/01/09 07:08:24;;;;;;;;;;;;;;;18.65;47.45;99289.28;5136015;27;19927;-59
2023/01/09 07:10:50;;;;;;;;;;;;;;;18.65;47.59;99292.88;5139952;27;20383;-59
2023/01/09 07:13:15;;;;;;;;;;;;;;;18.65;47.43;99287.38;5131152;27;19976;-59
2023/01/09 07:15:41;;;;;;;;;;;;;;;18.66;47.27;99282.66;5135970;27;19938;-58
2023/01/09 07:18:07;;;;;;;;;;;;;;;18.65;47.53;99286.53;5139714;27;19947;-59
2023/01/09 07:20:32;;;;;;;;;;;;;;;18.66;47.52;99282.66;5141443;27;19977;-59
2023/01/09 07:22:58;;;;;;;;;;;;;;;18.65;47.39;99276.34;5140408;27;20269;-59
2023/01/09 07:25:23;;;;;;;;;;;;;;;18.66;47.32;99282.66;5139981;27;19930;-59
2023/01/09 07:27:49;;;;;;;;;;;;;;;18.66;47.27;99283.47;5128329;27;19950;-59
2023/01/09 07:30:14;;;;;;;;;;;;;;;18.66;47.49;99288.19;5136258;27;19984;-59
2023/01/09 07:32:40;;;;;;;;;;;;;;;18.65;47.59;99286.53;5123933;27;19943;-59
2023/01/09 07:35:06;;;;;;;;;;;;;;;18.65;47.51;99290.13;5138232;27;20311;-59
2023/01/09 07:37:33;;;;;;;;;;;;;;;18.64;47.54;99288.47;5134701;27;20425;-59
2023/01/09 07:39:58;;;;;;;;;;;;;;;18.65;47.22;99300.31;5114919;27;20374;-57
2023/01/09 07:42:24;;;;;;;;;;;;;;;18.64;47.81;99291.22;5132294;27;19931;-59
2023/01/09 07:44:49;;;;;;;;;;;;;;;18.68;48.07;99300.50;5120595;27;19931;-59
2023/01/09 07:47:15;;;;;;;;;;;;;;;18.69;48.24;99298.53;5135446;27;19943;-59
2023/01/09 07:49:41;;;;;;;;;;;;;;;18.70;48.48;99301.03;5138597;27;20005;-58
2023/01/09 07:52:06;;;;;;;;;;;;;;;18.69;48.68;99307.66;5138064;27;19942;-59
2023/01/09 07:54:32;;;;;;;;;;;;;;;18.70;48.51;99316.78;5128545;27;20411;-59
2023/01/09 07:56:57;;;;;;;;;;;;;;;18.70;48.54;99306.56;5132558;27;19996;-59
2023/01/09 07:59:23;;;;;;;;;;;;;;;18.71;48.60;99312.88;5127031;27;19927;-59
2023/01/09 08:01:49;;;;;;;;;;;;;;;18.71;48.35;99310.13;5125434;27;19987;-58
2023/01/09 08:04:15;;;;;;;;;;;;;;;18.71;48.34;99319.22;5124985;27;20382;-58
2023/01/09 08:06:40;;;;;;;;;;;;;;;18.72;48.41;99315.31;5120799;27;20867;-58
2023/01/09 08:09:06;;;;;;;;;;;;;;;18.73;48.36;99319.69;5119102;27;19928;-59
2023/01/09 08:11:32;;;;;;;;;;;;;;;18.73;48.21;99311.41;5127156;27;20395;-58
2023/01/09 08:13:57;;;;;;;;;;;;;;;18.73;48.04;99316.13;5136387;27;19931;-58
2023/01/09 08:16:23;;;;;;;;;;;;;;;18.74;48.16;99318.59;5134816;27;19923;-59
2023/01/09 08:18:48;;;;;;;;;;;;;;;18.74;48.13;99320.53;5131534;27;20398;-59
2023/01/09 08:21:14;;;;;;;;;;;;;;;18.74;48.23;99321.34;5132380;27;19928;-58
2023/01/09 08:23:39;;;;;;;;;;;;;;;18.75;48.11;99331.22;5136140;27;20414;-59
2023/01/09 08:26:05;;;;;;;;;;;;;;;18.76;47.91;99337.56;5135720;27;19942;-59
2023/01/09 08:28:31;;;;;;;;;;;;;;;18.75;48.24;99331.22;5137397;27;20446;-59
2023/01/09 08:30:56;;;;;;;;;;;;;;;18.76;47.94;99337.56;5130988;27;19931;-59
2023/01/09 08:33:22;;;;;;;;;;;;;;;18.77;47.96;99341.94;5115611;27;20344;-59
2023/01/09 08:35:47;;;;;;;;;;;;;;;18.77;47.85;99339.19;5137414;27;19927;-59
2023/01/09 08:38:13;;;;;;;;;;;;;;;18.78;47.76;99340.78;5135985;27;20005;-59
2023/01/09 08:40:38;;;;;;;;;;;;;;;18.77;48.01;99344.69;5140159;27;20302;-59
2023/01/09 08:48:35;;;;;;;;;;;;;;;18.75;47.71;99356.06;5107087;27;20371;-58
2023/01/09 08:51:01;;;;;;;;;;;;;;;18.77;47.90;99356.53;5137026;27;19923;-58
2023/01/09 08:53:27;;;;;;;;;;;;;;;18.78;47.55;99365.63;5133000;27;19979;-58
2023/01/09 08:55:52;;;;;;;;;;;;;;;18.79;47.63;99373.59;5138979;27;20003;-59
2023/01/09 08:58:18;;;;;;;;;;;;;;;18.79;47.89;99365.31;5134902;27;20428;-58
2023/01/09 09:00:44;;;;;;;;;;;;;;;18.79;47.86;99370.84;5134927;27;19923;-58
2023/01/09 09:03:10;;;;;;;;;;;;;;;18.80;47.88;99379.94;5133447;27;19927;-58
2023/01/09 09:05:36;;;;;;;;;;;;;;;18.80;47.80;99380.72;5126275;27;20332;-59
2023/01/09 09:08:02;;;;;;;;;;;;;;;18.82;47.66;99385.13;5120526;27;20453;-59
2023/01/09 09:10:28;;;;;;;;;;;;;;;18.81;47.81;99381.53;5122918;27;19985;-58
2023/01/09 09:12:54;;;;;;;;;;;;;;;18.81;47.56;99378.78;5123501;27;19923;-58
2023/01/09 09:15:22;;;;;;;;;;;;;;;18.82;47.86;99382.34;5112267;27;19927;-59
2023/01/09 09:17:49;;;;;;;;;;;;;;;18.82;47.87;99393.38;5132622;27;19982;-58
2023/01/09 09:20:14;;;;;;;;;;;;;;;18.84;47.60;99386.44;5127889;27;19955;-58
2023/01/09 09:22:40;;;;;;;;;;;;;;;18.82;46.52;99396.16;5129518;27;19934;-54
2023/01/09 09:25:05;;;;;;;;;;;;;;;18.86;47.68;99388.88;5137721;27;20436;-59
2023/01/09 09:27:31;;;;;;;;;;;;;;;18.88;47.39;99395.72;5133163;27;19938;-59
2023/01/09 09:29:57;;;;;;;;;;;;;;;18.89;47.46;99391.00;5114918;27;19935;-59
2023/01/09 09:32:22;;;;;;;;;;;;;;;18.87;47.64;99398.78;5134013;27;19931;-59
2023/01/09 09:34:48;;;;;;;;;;;;;;;18.87;47.52;99401.53;5128257;27;19927;-59
2023/01/09 09:37:13;;;;;;;;;;;;;;;18.85;47.85;99407.38;5110521;27;19924;-59
2023/01/09 09:39:39;;;;;;;;;;;;;;;18.86;47.76;99417.25;5124938;27;20253;-59
2023/01/09 09:45:01;;;;;;;;;;;;;;;18.87;47.59;99429.09;5099055;27;20871;-59
2023/01/09 09:47:30;;;;;;;;;;;;;;;18.86;47.68;99431.06;5115051;27;19938;-59
2023/01/09 09:50:16;;;;;;;;;;;;;;;18.87;47.61;99437.38;5129105;27;19995;-59
2023/01/09 09:53:01;;;;;;;;;;;;;;;18.86;47.74;99439.34;5118549;27;20365;-59
2023/01/09 09:55:29;;;;;;;;;;;;;;;18.88;47.83;99452.81;5117358;27;20409;-58
2023/01/09 09:57:55;;;;;;;;;;;;;;;18.87;47.79;99443.75;5115372;27;19981;-57
2023/01/09 10:00:21;;;;;;;;;;;;;;;18.88;47.68;99455.59;5130374;27;20434;-58
2023/01/09 10:02:50;;;;;;;;;;;;;;;18.87;47.68;99457.53;5114369;27;19946;-59
2023/01/09 10:05:19;;;;;;;;;;;;;;;18.88;47.58;99463.88;5122063;27;20352;-58
2023/01/09 10:07:46;;;;;;;;;;;;;;;18.88;47.51;99461.91;5141384;27;20386;-58
2023/01/09 10:10:14;;;;;;;;;;;;;;;18.88;47.61;99464.69;5120846;27;20251;-58
2023/01/09 10:12:42;;;;;;;;;;;;;;;18.89;47.47;99471.00;5136530;27;19931;-58
2023/01/09 10:15:16;;;;;;;;;;;;;;;18.89;47.59;99468.25;5140533;27;19974;-58
2023/01/09 10:17:47;;;;;;;;;;;;;;;18.88;47.81;99470.19;5130691;27;19933;-58
2023/01/09 10:20:33;;;;;;;;;;;;;;;18.90;47.80;99478.94;5136626;27;20026;-58
2023/01/09 10:23:08;;;;;;;;;;;;;;;18.90;47.72;99472.63;5117133;27;19978;-58
2023/01/09 10:25:39;;;;;;;;;;;;;;;18.83;46.38;99478.59;5138551;27;19938;-58
2023/01/09 10:28:24;;;;;;;;;;;;;;;18.88;47.14;99478.47;5134823;27;19931;-59
2023/01/09 10:30:50;;;;;;;;;;;;;;;18.89;47.55;99471.81;5133077;27;20397;-58
2023/01/09 10:33:36;;;;;;;;;;;;;;;18.90;47.54;99475.38;5131471;27;19981;-58
2023/01/09 10:36:21;;;;;;;;;;;;;;;18.90;47.28;99473.44;5109129;27;19930;-59
2023/01/09 10:38:48;;;;;;;;;;;;;;;18.91;47.53;99475.09;5106607;27;19974;-58
2023/01/09 10:41:15;;;;;;;;;;;;;;;18.92;47.57;99476.72;5103660;27;19955;-58
2023/01/09 10:43:43;;;;;;;;;;;;;;;18.92;47.58;99476.72;5127925;27;19923;-59
2023/01/09 10:46:09;;;;;;;;;;;;;;;18.91;47.32;99472.34;5126330;27;19981;-59
2023/01/09 10:48:36;;;;;;;;;;;;;;;18.93;47.60;99472.81;5136376;27;19927;-58
2023/01/09 10:51:12;;;;;;;;;;;;;;;18.94;47.33;99470.88;5133853;27;20387;-58
2023/01/09 10:53:38;;;;;;;;;;;;;;;18.94;47.49;99476.38;5114401;27;19962;-58
2023/01/09 10:56:12;;;;;;;;;;;;;;;18.90;46.28;99481.72;5134815;27;19946;-58
2023/01/09 10:58:38;;;;;;;;;;;;;;;18.95;47.43;99476.06;5144349;27;19927;-58
2023/01/09 11:01:04;;;;;;;;;;;;;;;18.96;47.12;99474.97;5139162;27;19923;-58
2023/01/09 11:03:29;;;;;;;;;;;;;;;18.95;47.49;99486.28;5138955;27;20446;-58
2023/01/09 11:05:57;;;;;;;;;;;;;;;18.96;47.25;99482.41;5135273;27;20407;-58
2023/01/09 11:08:28;;;;;;;;;;;;;;;18.95;47.15;99486.28;5136382;27;20042;-58
2023/01/09 11:10:54;;;;;;;;;;;;;;;18.95;47.55;99484.34;5136896;27;19934;-58
2023/01/09 11:13:21;;;;;;;;;;;;;;;18.95;47.23;99484.34;5132113;27;19927;-58
2023/01/09 11:16:04;;;;;;;;;;;;;;;18.93;46.57;99480.28;5137027;27;19923;-58
2023/01/09 11:18:30;;;;;;;;;;;;;;;18.96;47.36;99487.94;5138620;27;20378;-58
2023/01/09 11:21:02;;;;;;;;;;;;;;;18.97;47.49;99481.28;5135465;27;19927;-58
2023/01/09 11:23:29;;;;;;;;;;;;;;;18.97;47.41;99484.03;5142437;27;19953;-58
2023/01/09 11:25:56;;;;;;;;;;;;;;;18.98;47.17;99478.19;5115846;27;19927;-59
2023/01/09 11:28:22;;;;;;;;;;;;;;;18.98;46.90;99482.91;5137776;27;20364;-58
2023/01/09 11:30:52;;;;;;;;;;;;;;;18.98;47.22;99482.91;5142172;27;19930;-58
2023/01/09 11:33:19;;;;;;;;;;;;;;;18.97;47.38;99482.09;5143869;27;19999;-59
2023/01/09 11:36:05;;;;;;;;;;;;;;;18.97;47.16;99486.81;5137353;27;20341;-58
2023/01/09 11:38:31;;;;;;;;;;;;;;;18.98;47.47;99494.75;5120595;27;20128;-58
2023/01/09 11:40:58;;;;;;;;;;;;;;;18.99;47.17;99490.03;5139230;27;19923;-59
2023/01/09 11:43:29;;;;;;;;;;;;;;;19.00;46.64;99500.78;5134060;27;19962;-58
2023/01/09 11:45:55;;;;;;;;;;;;;;;19.00;47.03;99502.75;5113776;27;20205;-59
2023/01/09 11:48:28;;;;;;;;;;;;;;;19.01;47.28;99509.88;5131036;27;19927;-58
2023/01/09 11:50:55;;;;;;;;;;;;;;;19.01;47.08;99520.91;5103248;27;19935;-59
2023/01/09 11:53:21;;;;;;;;;;;;;;;19.00;47.25;99517.34;5132181;27;19930;-58
2023/01/09 11:55:49;;;;;;;;;;;;;;;19.01;47.31;99529.19;5136727;27;19993;-59
2023/01/09 11:58:17;;;;;;;;;;;;;;;19.00;47.26;99530.31;5132756;27;20325;-58
2023/01/09 12:00:47;;;;;;;;;;;;;;;19.00;47.12;99531.13;5126611;27;19934;-59
2023/01/09 12:03:32;;;;;;;;;;;;;;;19.01;47.09;99542.97;5135770;27;19962;-59
2023/01/09 12:05:59;;;;;;;;;;;;;;;19.05;47.01;99542.03;5112994;27;19932;-58
2023/01/09 12:08:34;;;;;;;;;;;;;;;19.04;47.41;99551.47;5109905;27;20011;-58
2023/01/09 12:11:20;;;;;;;;;;;;;;;19.06;47.62;99553.91;5135911;27;19967;-59
2023/01/09 12:13:50;;;;;;;;;;;;;;;19.07;47.41;99562.97;5121245;27;19923;-61
2023/01/09 12:16:21;;;;;;;;;;;;;;;19.09;47.14;99557.97;5136908;27;19931;-58
2023/01/09 12:19:07;;;;;;;;;;;;;;;19.07;47.35;99555.50;5139721;27;19938;-59
2023/01/09 12:21:33;;;;;;;;;;;;;;;19.06;46.93;99548.38;5121179;27;19994;-59
2023/01/09 12:24:18;;;;;;;;;;;;;;;19.05;47.28;99558.59;5117292;27;19931;-59
2023/01/09 12:26:48;;;;;;;;;;;;;;;19.06;47.27;99559.41;5123505;27;19973;-58
2023/01/09 12:29:33;;;;;;;;;;;;;;;19.07;47.50;99566.56;5128815;27;19923;-58
2023/01/09 12:32:03;;;;;;;;;;;;;;;19.05;46.65;99558.59;5115710;27;19951;-58
2023/01/09 12:34:48;;;;;;;;;;;;;;;19.04;46.63;99554.22;5130071;27;19994;-60
2023/01/09 12:37:21;;;;;;;;;;;;;;;19.10;47.05;99563.19;5112040;27;19931;-58
2023/01/09 12:39:52;;;;;;;;;;;;;;;19.09;47.12;99564.31;5135295;27;20294;-58
2023/01/09 12:42:37;;;;;;;;;;;;;;;19.09;47.15;99567.06;5136346;27;20181;-58
2023/01/09 12:45:23;;;;;;;;;;;;;;;19.09;46.96;99561.56;5119505;27;19935;-56
2023/01/09 12:47:48;;;;;;;;;;;;;;;19.11;47.28;99567.56;5123897;27;19950;-58
2023/01/09 12:50:34;;;;;;;;;;;;;;;19.11;47.27;99572.25;5133657;27;20294;-58
2023/01/09 12:53:19;;;;;;;;;;;;;;;19.10;47.27;99576.97;5120964;27;19963;-58
2023/01/09 12:55:46;;;;;;;;;;;;;;;19.09;47.26;99580.06;5124016;27;19965;-58
2023/01/09 12:58:17;;;;;;;;;;;;;;;19.09;47.48;99582.81;5126897;27;19970;-58
2023/01/09 13:00:44;;;;;;;;;;;;;;;19.11;47.48;99583.31;5138033;27;20997;-58
2023/01/09 13:03:13;;;;;;;;;;;;;;;19.11;47.02;99591.59;5139915;27;19938;-58